sensor_id;sensor_type;location;lat;lon;timestamp;pressure;altitude;pressure_sealevel;temperature;humidity
40788;BME280;26497;52.494;7.546;2023-11-21T00:01:16;100336.59;;;12.55;73.63
40788;BME280;26497;52.494;7.546;2023-11-21T00:03:43;100341.81;;;12.60;73.66
40788;BME280;26497;52.494;7.546;2023-11-21T00:06:10;100347.13;;;12.58;73.82
40788;BME280;26497;52.494;7.546;2023-11-21T00:08:38;100339.19;;;12.58;73.90
40788;BME280;26497;52.494;7.546;2023-11-21T00:11:06;100347.19;;;12.55;74.36
40788;BME280;26497;52.494;7.546;2023-11-21T00:13:33;100349.72;;;12.61;73.54
40788;BME280;26497;52.494;7.546;2023-11-21T00:16:00;100351.63;;;12.53;74.17
40788;BME280;26497;52.494;7.546;2023-11-21T00:18:27;100351.50;;;12.61;74.30
40788;BME280;26497;52.494;7.546;2023-11-21T00:20:54;100352.34;;;12.61;74.43
40788;BME280;26497;52.494;7.546;2023-11-21T00:23:24;100351.41;;;12.65;74.17
40788;BME280;26497;52.494;7.546;2023-11-21T00:25:51;100354.00;;;12.70;74.28
40788;BME280;26497;52.494;7.546;2023-11-21T00:28:20;100353.94;;;12.76;74.10
40788;BME280;26497;52.494;7.546;2023-11-21T00:30:48;100355.84;;;12.63;74.25
40788;BME280;26497;52.494;7.546;2023-11-21T00:33:15;100359.50;;;12.54;74.61
40788;BME280;26497;52.494;7.546;2023-11-21T00:35:42;100357.72;;;12.58;74.87
40788;BME280;26497;52.494;7.546;2023-11-21T00:38:09;100353.97;;;12.73;74.63
40788;BME280;26497;52.494;7.546;2023-11-21T00:40:36;100359.22;;;12.76;74.40
40788;BME280;26497;52.494;7.546;2023-11-21T00:43:03;100361.69;;;12.87;74.29
40788;BME280;26497;52.494;7.546;2023-11-21T00:45:32;100361.69;;;12.87;74.18
40788;BME280;26497;52.494;7.546;2023-11-21T00:47:59;100370.34;;;12.98;73.83
40788;BME280;26497;52.494;7.546;2023-11-21T00:50:26;100372.06;;;13.03;73.71
40788;BME280;26497;52.494;7.546;2023-11-21T00:52:53;100371.25;;;12.99;73.91
40788;BME280;26497;52.494;7.546;2023-11-21T00:55:20;100373.81;;;13.04;73.83
40788;BME280;26497;52.494;7.546;2023-11-21T00:57:47;100366.00;;;12.94;74.22
40788;BME280;26497;52.494;7.546;2023-11-21T01:00:15;100370.53;;;12.88;74.20
40788;BME280;26497;52.494;7.546;2023-11-21T01:02:44;100373.22;;;12.85;74.71
40788;BME280;26497;52.494;7.546;2023-11-21T01:05:12;100383.75;;;12.86;74.67
40788;BME280;26497;52.494;7.546;2023-11-21T01:07:39;100377.44;;;12.96;74.64
40788;BME280;26497;52.494;7.546;2023-11-21T01:10:06;100376.50;;;13.01;74.38
40788;BME280;26497;52.494;7.546;2023-11-21T01:12:34;100378.28;;;12.98;74.26
40788;BME280;26497;52.494;7.546;2023-11-21T01:15:02;100383.75;;;12.88;75.22
40788;BME280;26497;52.494;7.546;2023-11-21T01:17:29;100387.34;;;12.82;75.50
40788;BME280;26497;52.494;7.546;2023-11-21T01:19:58;100397.94;;;12.82;75.56
40788;BME280;26497;52.494;7.546;2023-11-21T01:22:24;100396.13;;;12.86;75.53
40788;BME280;26497;52.494;7.546;2023-11-21T01:24:52;100405.97;;;12.76;76.26
40788;BME280;26497;52.494;7.546;2023-11-21T01:27:19;100414.53;;;12.93;75.94
40788;BME280;26497;52.494;7.546;2023-11-21T01:29:46;100411.66;;;13.10;75.31
40788;BME280;26497;52.494;7.546;2023-11-21T01:32:13;100414.13;;;13.21;75.00
40788;BME280;26497;52.494;7.546;2023-11-21T01:34:40;100418.84;;;13.01;75.55
40788;BME280;26497;52.494;7.546;2023-11-21T01:37:08;100419.44;;;13.21;75.17
40788;BME280;26497;52.494;7.546;2023-11-21T01:39:37;100416.59;;;13.34;74.52
40788;BME280;26497;52.494;7.546;2023-11-21T01:42:05;100418.34;;;13.33;74.67
40788;BME280;26497;52.494;7.546;2023-11-21T01:44:33;100423.59;;;13.38;74.61
40788;BME280;26497;52.494;7.546;2023-11-21T01:47:01;100426.34;;;13.32;74.76
40788;BME280;26497;52.494;7.546;2023-11-21T01:49:31;100425.34;;;13.39;74.54
40788;BME280;26497;52.494;7.546;2023-11-21T01:51:59;100433.38;;;13.33;74.59
40788;BME280;26497;52.494;7.546;2023-11-21T01:54:27;100432.88;;;13.07;75.78
40788;BME280;26497;52.494;7.546;2023-11-21T01:56:56;100430.91;;;13.20;75.88
40788;BME280;26497;52.494;7.546;2023-11-21T01:59:26;100453.03;;;13.18;75.90
40788;BME280;26497;52.494;7.546;2023-11-21T02:01:54;100446.81;;;13.22;75.84
40788;BME280;26497;52.494;7.546;2023-11-21T02:04:22;100450.13;;;13.35;75.22
40788;BME280;26497;52.494;7.546;2023-11-21T02:06:49;100449.41;;;13.25;75.46
40788;BME280;26497;52.494;7.546;2023-11-21T02:09:16;100450.97;;;13.37;75.46
40788;BME280;26497;52.494;7.546;2023-11-21T02:11:45;100443.03;;;13.35;75.36
40788;BME280;26497;52.494;7.546;2023-11-21T02:14:12;100437.78;;;13.32;75.33
40788;BME280;26497;52.494;7.546;2023-11-21T02:16:39;100437.78;;;13.32;75.39
40788;BME280;26497;52.494;7.546;2023-11-21T02:19:08;100444.78;;;13.38;75.01
40788;BME280;26497;52.494;7.546;2023-11-21T02:21:38;100450.81;;;13.49;74.79
40788;BME280;26497;52.494;7.546;2023-11-21T02:24:08;100451.84;;;13.39;74.97
40788;BME280;26497;52.494;7.546;2023-11-21T02:26:35;100452.88;;;13.28;75.43
40788;BME280;26497;52.494;7.546;2023-11-21T02:29:03;100449.16;;;13.42;74.81
40788;BME280;26497;52.494;7.546;2023-11-21T02:31:30;100458.81;;;13.45;74.98
40788;BME280;26497;52.494;7.546;2023-11-21T02:33:58;100453.59;;;13.38;74.99
40788;BME280;26497;52.494;7.546;2023-11-21T02:36:25;100457.13;;;13.42;74.87
40788;BME280;26497;52.494;7.546;2023-11-21T02:38:52;100455.31;;;13.44;74.84
40788;BME280;26497;52.494;7.546;2023-11-21T02:41:20;100454.66;;;13.26;75.35
40788;BME280;26497;52.494;7.546;2023-11-21T02:43:47;100467.72;;;13.42;75.25
40788;BME280;26497;52.494;7.546;2023-11-21T02:46:14;100461.53;;;13.43;74.83
40788;BME280;26497;52.494;7.546;2023-11-21T02:48:41;100462.56;;;13.28;75.33
40788;BME280;26497;52.494;7.546;2023-11-21T02:51:08;100461.56;;;13.37;75.11
40788;BME280;26497;52.494;7.546;2023-11-21T02:53:35;100460.72;;;13.33;75.32
40788;BME280;26497;52.494;7.546;2023-11-21T02:56:05;100444.84;;;13.33;75.51
40788;BME280;26497;52.494;7.546;2023-11-21T02:58:34;100456.13;;;13.49;75.13
40788;BME280;26497;52.494;7.546;2023-11-21T03:01:01;100465.81;;;13.49;74.82
40788;BME280;26497;52.494;7.546;2023-11-21T03:03:28;100467.78;;;13.36;75.18
40788;BME280;26497;52.494;7.546;2023-11-21T03:05:55;100466.03;;;13.35;75.22
40788;BME280;26497;52.494;7.546;2023-11-21T03:08:22;100469.66;;;13.26;75.50
40788;BME280;26497;52.494;7.546;2023-11-21T03:10:49;100473.13;;;13.33;75.25
40788;BME280;26497;52.494;7.546;2023-11-21T03:13:15;100463.47;;;13.27;75.60
40788;BME280;26497;52.494;7.546;2023-11-21T03:15:44;100474.72;;;13.45;75.32
40788;BME280;26497;52.494;7.546;2023-11-21T03:18:11;100470.22;;;13.51;75.12
40788;BME280;26497;52.494;7.546;2023-11-21T03:20:39;100469.47;;;13.40;75.05
40788;BME280;26497;52.494;7.546;2023-11-21T03:23:05;100475.72;;;13.36;75.22
40788;BME280;26497;52.494;7.546;2023-11-21T03:25:32;100488.03;;;13.40;75.09
40788;BME280;26497;52.494;7.546;2023-11-21T03:27:59;100495.16;;;13.35;75.33
40788;BME280;26497;52.494;7.546;2023-11-21T03:30:26;100491.47;;;13.47;74.81
40788;BME280;26497;52.494;7.546;2023-11-21T03:32:55;100496.75;;;13.47;74.44
40788;BME280;26497;52.494;7.546;2023-11-21T03:35:22;100489.81;;;13.38;75.07
40788;BME280;26497;52.494;7.546;2023-11-21T03:37:50;100491.59;;;13.36;75.16
40788;BME280;26497;52.494;7.546;2023-11-21T03:40:17;100499.56;;;13.36;75.26
40788;BME280;26497;52.494;7.546;2023-11-21T03:42:43;100496.72;;;13.50;74.76
40788;BME280;26497;52.494;7.546;2023-11-21T03:45:11;100503.84;;;13.46;74.56
40788;BME280;26497;52.494;7.546;2023-11-21T03:47:38;100496.00;;;13.35;75.21
40788;BME280;26497;52.494;7.546;2023-11-21T03:50:10;100512.75;;;13.39;75.58
40788;BME280;26497;52.494;7.546;2023-11-21T03:52:37;100510.88;;;13.49;74.91
40788;BME280;26497;52.494;7.546;2023-11-21T03:55:05;100514.38;;;13.51;74.67
40788;BME280;26497;52.494;7.546;2023-11-21T03:57:32;100509.22;;;13.40;74.87
40788;BME280;26497;52.494;7.546;2023-11-21T03:59:59;100513.63;;;13.39;74.81
40788;BME280;26497;52.494;7.546;2023-11-21T04:02:26;100524.19;;;13.42;75.14
40788;BME280;26497;52.494;7.546;2023-11-21T04:04:53;100517.16;;;13.41;75.15
40788;BME280;26497;52.494;7.546;2023-11-21T04:07:22;100519.97;;;13.27;75.32
40788;BME280;26497;52.494;7.546;2023-11-21T04:09:49;100517.19;;;13.35;75.16
40788;BME280;26497;52.494;7.546;2023-11-21T04:12:16;100526.84;;;13.39;75.30
40788;BME280;26497;52.494;7.546;2023-11-21T04:14:43;100528.69;;;13.36;75.36
40788;BME280;26497;52.494;7.546;2023-11-21T04:17:10;100527.66;;;13.49;74.92
40788;BME280;26497;52.494;7.546;2023-11-21T04:19:37;100528.47;;;13.54;74.65
40788;BME280;26497;52.494;7.546;2023-11-21T04:22:04;100526.56;;;13.63;74.39
40788;BME280;26497;52.494;7.546;2023-11-21T04:24:32;100524.88;;;13.59;74.37
40788;BME280;26497;52.494;7.546;2023-11-21T04:26:59;100535.66;;;13.46;74.37
40788;BME280;26497;52.494;7.546;2023-11-21T04:29:26;100547.28;;;13.31;75.37
40788;BME280;26497;52.494;7.546;2023-11-21T04:31:53;100545.47;;;13.35;75.36
40788;BME280;26497;52.494;7.546;2023-11-21T04:34:20;100557.66;;;13.50;74.74
40788;BME280;26497;52.494;7.546;2023-11-21T04:36:47;100555.81;;;13.55;74.56
40788;BME280;26497;52.494;7.546;2023-11-21T04:39:14;100562.19;;;13.38;74.80
40788;BME280;26497;52.494;7.546;2023-11-21T04:41:42;100560.25;;;13.53;74.63
40788;BME280;26497;52.494;7.546;2023-11-21T04:44:09;100556.06;;;13.33;74.85
40788;BME280;26497;52.494;7.546;2023-11-21T04:46:36;100559.63;;;13.32;75.38
40788;BME280;26497;52.494;7.546;2023-11-21T04:49:03;100563.94;;;13.39;74.95
40788;BME280;26497;52.494;7.546;2023-11-21T04:51:30;100568.38;;;13.42;74.95
40788;BME280;26497;52.494;7.546;2023-11-21T04:53:57;100571.97;;;13.35;74.96
40788;BME280;26497;52.494;7.546;2023-11-21T04:56:24;100572.69;;;13.49;74.53
40788;BME280;26497;52.494;7.546;2023-11-21T04:58:54;100567.47;;;13.43;74.92
40788;BME280;26497;52.494;7.546;2023-11-21T05:01:21;100569.31;;;13.35;74.88
40788;BME280;26497;52.494;7.546;2023-11-21T05:03:48;100571.22;;;13.23;75.02
40788;BME280;26497;52.494;7.546;2023-11-21T05:06:15;100568.66;;;13.19;75.49
40788;BME280;26497;52.494;7.546;2023-11-21T05:08:42;100570.34;;;13.24;75.40
40788;BME280;26497;52.494;7.546;2023-11-21T05:11:09;100582.56;;;13.33;75.21
40788;BME280;26497;52.494;7.546;2023-11-21T05:13:37;100586.84;;;13.48;74.68
40788;BME280;26497;52.494;7.546;2023-11-21T05:16:07;100588.53;;;13.52;74.27
40788;BME280;26497;52.494;7.546;2023-11-21T05:18:34;100592.22;;;13.39;74.78
40788;BME280;26497;52.494;7.546;2023-11-21T05:21:01;100595.59;;;13.52;74.46
40788;BME280;26497;52.494;7.546;2023-11-21T05:23:28;100596.56;;;13.45;74.68
40788;BME280;26497;52.494;7.546;2023-11-21T05:25:55;100603.50;;;13.56;74.54
40788;BME280;26497;52.494;7.546;2023-11-21T05:28:23;100606.16;;;13.56;73.99
40788;BME280;26497;52.494;7.546;2023-11-21T05:30:49;100608.88;;;13.49;74.46
40788;BME280;26497;52.494;7.546;2023-11-21T05:33:18;100608.81;;;13.55;74.15
40788;BME280;26497;52.494;7.546;2023-11-21T05:35:45;100623.03;;;13.49;74.19
40788;BME280;26497;52.494;7.546;2023-11-21T05:38:12;100621.31;;;13.45;74.65
40788;BME280;26497;52.494;7.546;2023-11-21T05:40:39;100624.88;;;13.39;74.62
40788;BME280;26497;52.494;7.546;2023-11-21T05:43:07;100636.28;;;13.48;74.63
40788;BME280;26497;52.494;7.546;2023-11-21T05:45:34;100632.53;;;13.66;73.84
40788;BME280;26497;52.494;7.546;2023-11-21T05:48:00;100634.41;;;13.57;73.73
40788;BME280;26497;52.494;7.546;2023-11-21T05:50:29;100639.69;;;13.57;73.92
40788;BME280;26497;52.494;7.546;2023-11-21T05:52:56;100644.97;;;13.61;74.01
40788;BME280;26497;52.494;7.546;2023-11-21T05:55:25;100652.88;;;13.62;73.92
40788;BME280;26497;52.494;7.546;2023-11-21T05:57:52;100659.19;;;13.53;73.75
40788;BME280;26497;52.494;7.546;2023-11-21T06:00:20;100657.59;;;13.37;74.46
40788;BME280;26497;52.494;7.546;2023-11-21T06:02:47;100670.72;;;13.48;74.37
40788;BME280;26497;52.494;7.546;2023-11-21T06:05:18;100672.34;;;13.58;73.95
40788;BME280;26497;52.494;7.546;2023-11-21T06:07:46;100675.03;;;13.56;74.13
40788;BME280;26497;52.494;7.546;2023-11-21T06:10:13;100674.06;;;13.62;73.93
40788;BME280;26497;52.494;7.546;2023-11-21T06:12:41;100679.25;;;13.73;73.47
40788;BME280;26497;52.494;7.546;2023-11-21T06:15:10;100682.84;;;13.69;73.49
40788;BME280;26497;52.494;7.546;2023-11-21T06:17:39;100683.78;;;13.63;73.72
40788;BME280;26497;52.494;7.546;2023-11-21T06:20:08;100688.13;;;13.67;73.48
40788;BME280;26497;52.494;7.546;2023-11-21T06:22:41;100693.31;;;13.77;73.26
40788;BME280;26497;52.494;7.546;2023-11-21T06:25:10;100705.75;;;13.73;73.21
40788;BME280;26497;52.494;7.546;2023-11-21T06:27:40;100709.31;;;13.70;73.49
40788;BME280;26497;52.494;7.546;2023-11-21T06:30:09;100709.22;;;13.78;73.25
40788;BME280;26497;52.494;7.546;2023-11-21T06:32:38;100712.84;;;13.71;73.35
40788;BME280;26497;52.494;7.546;2023-11-21T06:35:07;100715.50;;;13.71;73.67
40788;BME280;26497;52.494;7.546;2023-11-21T06:37:35;100717.31;;;13.66;73.81
40788;BME280;26497;52.494;7.546;2023-11-21T06:40:03;100726.91;;;13.75;73.61
40788;BME280;26497;52.494;7.546;2023-11-21T06:46:13;100734.00;;;13.74;73.53
40788;BME280;26497;52.494;7.546;2023-11-21T06:48:42;100733.09;;;13.75;73.55
40788;BME280;26497;52.494;7.546;2023-11-21T06:51:09;100730.44;;;13.77;73.73
40788;BME280;26497;52.494;7.546;2023-11-21T06:53:36;100736.53;;;13.82;73.63
40788;BME280;26497;52.494;7.546;2023-11-21T06:56:04;100738.25;;;13.88;73.27
40788;BME280;26497;52.494;7.546;2023-11-21T06:58:33;100749.81;;;13.82;73.52
40788;BME280;26497;52.494;7.546;2023-11-21T07:01:00;100751.53;;;13.86;73.43
40788;BME280;26497;52.494;7.546;2023-11-21T07:03:29;100752.41;;;13.86;73.35
40788;BME280;26497;52.494;7.546;2023-11-21T07:05:55;100763.00;;;13.85;73.35
40788;BME280;26497;52.494;7.546;2023-11-21T07:08:22;100766.66;;;13.75;73.68
40788;BME280;26497;52.494;7.546;2023-11-21T07:10:49;100766.56;;;13.84;73.50
40788;BME280;26497;52.494;7.546;2023-11-21T07:13:16;100765.63;;;13.90;73.54
40788;BME280;26497;52.494;7.546;2023-11-21T07:15:43;100770.03;;;13.89;73.71
40788;BME280;26497;52.494;7.546;2023-11-21T07:18:10;100775.34;;;13.91;73.73
40788;BME280;26497;52.494;7.546;2023-11-21T07:20:39;100775.22;;;13.98;73.63
40788;BME280;26497;52.494;7.546;2023-11-21T07:23:06;100778.72;;;13.99;73.45
40788;BME280;26497;52.494;7.546;2023-11-21T07:25:33;100787.50;;;14.04;73.20
40788;BME280;26497;52.494;7.546;2023-11-21T07:28:00;100796.38;;;14.03;73.37
40788;BME280;26497;52.494;7.546;2023-11-21T07:30:27;100800.78;;;14.04;73.32
40788;BME280;26497;52.494;7.546;2023-11-21T07:32:54;100793.66;;;14.08;73.46
40788;BME280;26497;52.494;7.546;2023-11-21T07:35:21;100797.19;;;14.10;73.53
40788;BME280;26497;52.494;7.546;2023-11-21T07:37:49;100800.69;;;14.10;73.49
40788;BME280;26497;52.494;7.546;2023-11-21T07:40:16;100804.25;;;14.11;73.44
40788;BME280;26497;52.494;7.546;2023-11-21T07:42:43;100811.34;;;14.07;73.57
40788;BME280;26497;52.494;7.546;2023-11-21T07:45:10;100812.97;;;14.18;73.08
40788;BME280;26497;52.494;7.546;2023-11-21T07:47:38;100822.72;;;14.15;73.18
40788;BME280;26497;52.494;7.546;2023-11-21T07:50:07;100819.25;;;14.12;73.12
40788;BME280;26497;52.494;7.546;2023-11-21T07:52:35;100817.53;;;14.08;73.44
40788;BME280;26497;52.494;7.546;2023-11-21T07:55:04;100820.97;;;14.14;73.50
40788;BME280;26497;52.494;7.546;2023-11-21T07:57:31;100826.50;;;13.97;73.90
40788;BME280;26497;52.494;7.546;2023-11-21T07:59:58;100836.00;;;14.15;73.39
40788;BME280;26497;52.494;7.546;2023-11-21T08:02:26;100849.25;;;14.17;73.03
40788;BME280;26497;52.494;7.546;2023-11-21T08:04:53;100851.03;;;14.13;73.05
40788;BME280;26497;52.494;7.546;2023-11-21T08:07:22;100855.47;;;14.13;73.71
40788;BME280;26497;52.494;7.546;2023-11-21T08:09:49;100861.69;;;14.10;73.96
40788;BME280;26497;52.494;7.546;2023-11-21T08:12:17;100859.78;;;14.22;73.79
40788;BME280;26497;52.494;7.546;2023-11-21T08:14:45;100865.94;;;14.25;73.43
40788;BME280;26497;52.494;7.546;2023-11-21T08:17:12;100876.84;;;14.00;74.25
40788;BME280;26497;52.494;7.546;2023-11-21T08:19:39;100875.09;;;13.98;74.44
40788;BME280;26497;52.494;7.546;2023-11-21T08:22:06;100881.13;;;14.12;74.16
40788;BME280;26497;52.494;7.546;2023-11-21T08:24:34;100882.88;;;14.13;74.48
40788;BME280;26497;52.494;7.546;2023-11-21T08:27:55;100884.59;;;14.18;74.88
40788;BME280;26497;52.494;7.546;2023-11-21T08:30:23;100891.47;;;14.36;73.99
40788;BME280;26497;52.494;7.546;2023-11-21T08:32:49;100885.31;;;14.34;73.78
40788;BME280;26497;52.494;7.546;2023-11-21T08:35:17;100892.66;;;14.08;74.84
40788;BME280;26497;52.494;7.546;2023-11-21T08:37:45;100898.03;;;14.04;75.09
40788;BME280;26497;52.494;7.546;2023-11-21T08:40:27;100890.66;;;14.29;74.41
40788;BME280;26497;52.494;7.546;2023-11-21T08:42:56;100913.69;;;14.25;74.22
40788;BME280;26497;52.494;7.546;2023-11-21T08:45:25;100914.81;;;14.01;75.55
40788;BME280;26497;52.494;7.546;2023-11-21T08:47:52;100913.13;;;13.95;75.84
40788;BME280;26497;52.494;7.546;2023-11-21T08:50:19;100919.28;;;13.96;76.60
40788;BME280;26497;52.494;7.546;2023-11-21T08:52:47;100926.16;;;14.17;75.62
40788;BME280;26497;52.494;7.546;2023-11-21T08:55:14;100934.97;;;14.18;75.48
40788;BME280;26497;52.494;7.546;2023-11-21T08:57:43;100934.13;;;14.15;75.78
40788;BME280;26497;52.494;7.546;2023-11-21T09:00:13;100932.44;;;14.08;76.20
40788;BME280;26497;52.494;7.546;2023-11-21T09:02:43;100931.38;;;14.25;75.89
40788;BME280;26497;52.494;7.546;2023-11-21T09:05:11;100937.56;;;14.24;76.22
40788;BME280;26497;52.494;7.546;2023-11-21T09:07:41;100942.88;;;14.25;76.05
40788;BME280;26497;52.494;7.546;2023-11-21T09:10:09;100941.75;;;14.45;75.45
40788;BME280;26497;52.494;7.546;2023-11-21T09:12:37;100946.41;;;14.24;75.79
40788;BME280;26497;52.494;7.546;2023-11-21T09:15:06;100947.34;;;14.19;75.79
40788;BME280;26497;52.494;7.546;2023-11-21T09:17:35;100955.53;;;13.97;77.31
40788;BME280;26497;52.494;7.546;2023-11-21T09:20:02;100948.19;;;14.24;76.79
40788;BME280;26497;52.494;7.546;2023-11-21T09:22:31;100958.81;;;14.21;77.03
40788;BME280;26497;52.494;7.546;2023-11-21T09:24:58;100966.66;;;14.33;76.84
40788;BME280;26497;52.494;7.546;2023-11-21T09:27:25;100970.25;;;14.27;76.94
40788;BME280;26497;52.494;7.546;2023-11-21T09:29:52;100971.19;;;14.23;77.73
40788;BME280;26497;52.494;7.546;2023-11-21T09:32:20;100976.38;;;14.34;77.11
40788;BME280;26497;52.494;7.546;2023-11-21T09:34:49;100978.19;;;14.29;77.31
40788;BME280;26497;52.494;7.546;2023-11-21T09:37:16;100982.53;;;14.38;77.38
40788;BME280;26497;52.494;7.546;2023-11-21T09:39:45;100981.41;;;14.59;76.48
40788;BME280;26497;52.494;7.546;2023-11-21T09:42:19;100979.19;;;14.19;75.69
40788;BME280;26497;52.494;7.546;2023-11-21T09:44:56;100986.97;;;14.34;75.18
40788;BME280;26497;52.494;7.546;2023-11-21T09:48:04;100992.38;;;14.25;75.94
40788;BME280;26497;52.494;7.546;2023-11-21T09:50:34;101007.22;;;14.46;75.33
40788;BME280;26497;52.494;7.546;2023-11-21T09:53:18;101006.47;;;14.30;74.71
40788;BME280;26497;52.494;7.546;2023-11-21T09:55:48;101017.28;;;14.08;76.13
40788;BME280;26497;52.494;7.546;2023-11-21T09:58:16;101012.84;;;14.10;75.97
40788;BME280;26497;52.494;7.546;2023-11-21T10:00:46;101023.69;;;13.85;76.39
40788;BME280;26497;52.494;7.546;2023-11-21T10:03:14;101027.22;;;13.88;75.80
40788;BME280;26497;52.494;7.546;2023-11-21T10:05:44;101025.47;;;13.82;75.44
40788;BME280;26497;52.494;7.546;2023-11-21T10:08:13;101028.47;;;13.27;77.43
40788;BME280;26497;52.494;7.546;2023-11-21T10:10:45;101032.03;;;13.20;78.32
40788;BME280;26497;52.494;7.546;2023-11-21T10:13:14;101039.00;;;13.35;77.35
40788;BME280;26497;52.494;7.546;2023-11-21T10:15:43;101044.28;;;13.38;76.74
40788;BME280;26497;52.494;7.546;2023-11-21T10:18:16;101040.75;;;13.41;76.98
40788;BME280;26497;52.494;7.546;2023-11-21T10:20:46;101051.28;;;13.60;75.74
40788;BME280;26497;52.494;7.546;2023-11-21T10:23:18;101058.34;;;13.59;75.80
40788;BME280;26497;52.494;7.546;2023-11-21T10:25:46;101065.34;;;13.66;75.74
40788;BME280;26497;52.494;7.546;2023-11-21T10:28:14;101070.72;;;13.59;76.21
40788;BME280;26497;52.494;7.546;2023-11-21T10:30:41;101076.69;;;13.87;75.56
40788;BME280;26497;52.494;7.546;2023-11-21T10:33:10;101077.41;;;14.09;74.35
40788;BME280;26497;52.494;7.546;2023-11-21T10:35:44;101075.75;;;13.97;74.43
40788;BME280;26497;52.494;7.546;2023-11-21T10:38:16;101075.47;;;14.27;73.88
40788;BME280;26497;52.494;7.546;2023-11-21T10:40:44;101066.69;;;14.22;72.55
40788;BME280;26497;52.494;7.546;2023-11-21T10:43:14;101074.63;;;14.22;72.82
40788;BME280;26497;52.494;7.546;2023-11-21T10:45:42;101084.53;;;14.01;73.73
40788;BME280;26497;52.494;7.546;2023-11-21T10:48:12;101074.91;;;13.91;73.14
40788;BME280;26497;52.494;7.546;2023-11-21T10:50:41;101088.44;;;13.50;74.05
40788;BME280;26497;52.494;7.546;2023-11-21T10:53:11;101085.63;;;13.75;74.89
40788;BME280;26497;52.494;7.546;2023-11-21T10:55:39;101089.72;;;14.18;73.56
40788;BME280;26497;52.494;7.546;2023-11-21T10:58:06;101083.38;;;14.33;72.99
40788;BME280;26497;52.494;7.546;2023-11-21T11:00:37;101089.44;;;14.48;71.78
40788;BME280;26497;52.494;7.546;2023-11-21T11:03:06;101093.81;;;14.53;71.57
40788;BME280;26497;52.494;7.546;2023-11-21T11:05:41;101091.53;;;14.08;70.64
40788;BME280;26497;52.494;7.546;2023-11-21T11:08:13;101096.66;;;14.33;72.59
40788;BME280;26497;52.494;7.546;2023-11-21T11:10:45;101099.47;;;14.14;71.20
40788;BME280;26497;52.494;7.546;2023-11-21T11:13:13;101100.25;;;14.26;70.51
40788;BME280;26497;52.494;7.546;2023-11-21T11:15:41;101103.16;;;13.93;69.13
40788;BME280;26497;52.494;7.546;2023-11-21T11:18:08;101103.88;;;14.12;69.64
40788;BME280;26497;52.494;7.546;2023-11-21T11:20:37;101109.03;;;14.36;69.02
40788;BME280;26497;52.494;7.546;2023-11-21T11:23:29;101112.66;;;14.21;67.21
40788;BME280;26497;52.494;7.546;2023-11-21T11:26:12;101112.06;;;13.86;67.55
40788;BME280;26497;52.494;7.546;2023-11-21T11:29:03;101116.13;;;14.29;66.55
40788;BME280;26497;52.494;7.546;2023-11-21T11:31:40;101125.16;;;14.06;67.75
40788;BME280;26497;52.494;7.546;2023-11-21T11:34:22;101128.84;;;13.85;64.30
40788;BME280;26497;52.494;7.546;2023-11-21T11:37:00;101127.81;;;14.06;65.10
40788;BME280;26497;52.494;7.546;2023-11-21T11:39:34;101132.28;;;13.98;64.31
40788;BME280;26497;52.494;7.546;2023-11-21T11:42:04;101129.72;;;13.87;64.30
40788;BME280;26497;52.494;7.546;2023-11-21T11:44:49;101141.25;;;13.84;66.17
40788;BME280;26497;52.494;7.546;2023-11-21T11:47:24;101138.34;;;14.17;66.00
40788;BME280;26497;52.494;7.546;2023-11-21T11:50:03;101146.38;;;14.08;63.31
40788;BME280;26497;52.494;7.546;2023-11-21T11:52:34;101156.97;;;14.09;63.14
40788;BME280;26497;52.494;7.546;2023-11-21T11:55:05;101154.25;;;14.20;62.04
40788;BME280;26497;52.494;7.546;2023-11-21T11:57:36;101155.13;;;14.19;61.39
40788;BME280;26497;52.494;7.546;2023-11-21T12:00:17;101157.66;;;14.33;60.77
40788;BME280;26497;52.494;7.546;2023-11-21T12:02:47;101163.84;;;14.35;59.84
40788;BME280;26497;52.494;7.546;2023-11-21T12:05:16;101164.97;;;14.03;60.50
40788;BME280;26497;52.494;7.546;2023-11-21T12:07:51;101164.97;;;14.00;61.14
40788;BME280;26497;52.494;7.546;2023-11-21T12:10:38;101173.75;;;14.13;60.04
40788;BME280;26497;52.494;7.546;2023-11-21T12:13:13;101173.94;;;13.82;59.69
40788;BME280;26497;52.494;7.546;2023-11-21T12:15:40;101175.53;;;14.06;60.31
40788;BME280;26497;52.494;7.546;2023-11-21T12:18:08;101188.69;;;14.25;59.92
40788;BME280;26497;52.494;7.546;2023-11-21T12:20:35;101192.25;;;14.22;59.24
40788;BME280;26497;52.494;7.546;2023-11-21T12:23:07;101199.06;;;14.57;58.83
40788;BME280;26497;52.494;7.546;2023-11-21T12:25:38;101200.72;;;14.72;57.56
40788;BME280;26497;52.494;7.546;2023-11-21T12:28:07;101202.56;;;14.61;57.19
40788;BME280;26497;52.494;7.546;2023-11-21T12:30:37;101207.13;;;14.45;56.29
40788;BME280;26497;52.494;7.546;2023-11-21T12:33:04;101202.50;;;14.70;57.47
40788;BME280;26497;52.494;7.546;2023-11-21T12:35:34;101206.03;;;14.72;56.11
40788;BME280;26497;52.494;7.546;2023-11-21T12:38:03;101207.19;;;14.36;56.17
40788;BME280;26497;52.494;7.546;2023-11-21T12:40:31;101213.22;;;14.55;56.47
40788;BME280;26497;52.494;7.546;2023-11-21T12:43:00;101226.19;;;14.95;55.45
40788;BME280;26497;52.494;7.546;2023-11-21T12:45:30;101223.81;;;14.58;55.54
40788;BME280;26497;52.494;7.546;2023-11-21T12:47:59;101231.06;;;14.36;56.31
40788;BME280;26497;52.494;7.546;2023-11-21T12:50:31;101221.22;;;14.52;56.66
40788;BME280;26497;52.494;7.546;2023-11-21T12:53:01;101227.41;;;14.52;56.67
40788;BME280;26497;52.494;7.546;2023-11-21T12:55:31;101228.97;;;14.78;56.45
40788;BME280;26497;52.494;7.546;2023-11-21T12:58:02;101230.06;;;14.51;56.56
40788;BME280;26497;52.494;7.546;2023-11-21T13:00:36;101228.22;;;14.62;55.70
40788;BME280;26497;52.494;7.546;2023-11-21T13:03:06;101241.59;;;14.47;55.95